Time;durP1;ratioP1;P1;durP2;ratioP2;P2;SDS_P1;SDS_P2;PMS_P1;PMS_P2;Temp;Humidity;BMP_temperature;BMP_pressure;BME280_temperature;BME280_humidity;BME280_pressure;Samples;Min_cycle;Max_cycle;Signal;HPM_P1;HPM_P2
2021/04/24 00:00:16;;;;;;;4.33;2.67;;;8.6;90.8;;;;;;;;;
2021/04/24 00:01:02;;;;;;;4.33;2.67;;;8.6;90.8;;;;;;;;;
2021/04/24 00:02:02;;;;;;;5.07;2.3;;;8.5;91;;;;;;;;;
2021/04/24 00:02:29;;;;;;;3.77;2.47;;;8.5;91.2;;;;;;;;;
2021/04/24 00:03:02;;;;;;;3.77;2.47;;;8.5;91.2;;;;;;;;;
2021/04/24 00:03:15;;;;;;;4.2;2.03;;;8.5;91.2;;;;;;;;;
2021/04/24 00:04:02;;;;;;;4.2;2.03;;;8.5;91.2;;;;;;;;;
2021/04/24 00:04:12;;;;;;;4.2;2.03;;;8.5;91.2;;;;;;;;;
2021/04/24 00:04:42;;;;;;;5.97;2.27;;;8.5;91.3;;;;;;;;;
2021/04/24 00:05:01;;;;;;;5.97;2.27;;;8.5;91.3;;;;;;;;;
2021/04/24 00:05:13;;;;;;;5.97;2.27;;;8.5;91.3;;;;;;;;;
2021/04/24 00:05:28;;;;;;;3.3;2.07;;;8.5;91.2;;;;;;;;;
2021/04/24 00:06:02;;;;;;;3.3;2.07;;;8.5;91.2;;;;;;;;;
2021/04/24 00:06:15;;;;;;;2.83;2.1;;;8.5;91.2;;;;;;;;;
2021/04/24 00:06:25;;;;;;;2.83;2.1;;;8.5;91.2;;;;;;;;;
2021/04/24 00:06:56;;;;;;;2.83;2.1;;;8.5;91.2;;;;;;;;;
2021/04/24 00:07:02;;;;;;;2.83;2.1;;;8.5;91.2;;;;;;;;;
2021/04/24 00:07:18;;;;;;;4.5;2.4;;;8.4;91.4;;;;;;;;;
2021/04/24 00:07:31;;;;;;;4.5;2.4;;;8.4;91.4;;;;;;;;;
2021/04/24 00:07:42;;;;;;;4.5;2.4;;;8.4;91.4;;;;;;;;;
2021/04/24 00:08:02;;;;;;;4.5;2.4;;;8.4;91.4;;;;;;;;;
2021/04/24 00:08:12;;;;;;;4.5;2.4;;;8.4;91.4;;;;;;;;;
2021/04/24 00:08:28;;;;;;;6.9;2.5;;;8.4;91.3;;;;;;;;;
2021/04/24 00:08:38;;;;;;;6.9;2.5;;;8.4;91.3;;;;;;;;;
2021/04/24 00:09:01;;;;;;;6.9;2.5;;;8.4;91.3;;;;;;;;;
2021/04/24 00:09:09;;;;;;;6.9;2.5;;;8.4;91.3;;;;;;;;;
2021/04/24 00:09:14;;;;;;;6.9;2.5;;;8.4;91.3;;;;;;;;;
2021/04/24 00:09:29;;;;;;;4.13;2.4;;;8.4;91.3;;;;;;;;;
2021/04/24 00:09:44;;;;;;;4.13;2.4;;;8.4;91.3;;;;;;;;;
2021/04/24 00:09:55;;;;;;;4.13;2.4;;;8.4;91.3;;;;;;;;;
2021/04/24 00:10:02;;;;;;;4.13;2.4;;;8.4;91.3;;;;;;;;;
2021/04/24 00:10:16;;;;;;;4.9;2.17;;;8.4;91.3;;;;;;;;;
2021/04/24 00:10:25;;;;;;;4.9;2.17;;;8.4;91.3;;;;;;;;;
2021/04/24 00:10:43;;;;;;;4.9;2.17;;;8.4;91.3;;;;;;;;;
2021/04/24 00:10:51;;;;;;;4.9;2.17;;;8.4;91.3;;;;;;;;;
2021/04/24 00:11:02;;;;;;;4.9;2.17;;;8.4;91.3;;;;;;;;;
2021/04/24 00:11:17;;;;;;;5.6;2.27;;;8.4;91.3;;;;;;;;;
2021/04/24 00:11:27;;;;;;;5.6;2.27;;;8.4;91.3;;;;;;;;;
2021/04/24 00:11:42;;;;;;;5.6;2.27;;;8.4;91.3;;;;;;;;;
2021/04/24 00:11:58;;;;;;;5.6;2.27;;;8.4;91.3;;;;;;;;;
2021/04/24 00:12:01;;;;;;;5.6;2.27;;;8.4;91.3;;;;;;;;;
2021/04/24 00:12:08;;;;;;;5.6;2.27;;;8.4;91.3;;;;;;;;;
2021/04/24 00:12:13;;;;;;;5.6;2.27;;;8.4;91.3;;;;;;;;;
2021/04/24 00:12:28;;;;;;;4.63;2.6;;;8.4;91.3;;;;;;;;;
2021/04/24 00:12:38;;;;;;;4.63;2.6;;;8.4;91.3;;;;;;;;;
2021/04/24 00:12:59;;;;;;;4.63;2.6;;;8.4;91.3;;;;;;;;;
2021/04/24 00:13:01;;;;;;;4.63;2.6;;;8.4;91.3;;;;;;;;;
2021/04/24 00:13:04;;;;;;;4.63;2.6;;;8.4;91.3;;;;;;;;;
2021/04/24 00:13:14;;;;;;;4.63;2.6;;;8.4;91.3;;;;;;;;;
2021/04/24 00:13:30;;;;;;;4.13;2.5;;;8.4;91.3;;;;;;;;;
2021/04/24 00:13:40;;;;;;;4.13;2.5;;;8.4;91.3;;;;;;;;;
2021/04/24 00:13:55;;;;;;;4.13;2.5;;;8.4;91.3;;;;;;;;;
2021/04/24 00:14:01;;;;;;;4.13;2.5;;;8.4;91.3;;;;;;;;;
2021/04/24 00:14:11;;;;;;;4.13;2.5;;;8.4;91.3;;;;;;;;;
2021/04/24 00:14:16;;;;;;;4.13;2.5;;;8.4;91.3;;;;;;;;;
2021/04/24 00:14:26;;;;;;;6.9;2.43;;;8.5;91.2;;;;;;;;;
2021/04/24 00:14:41;;;;;;;6.9;2.43;;;8.5;91.2;;;;;;;;;
2021/04/24 00:14:52;;;;;;;6.9;2.43;;;8.5;91.2;;;;;;;;;
2021/04/24 00:15:02;;;;;;;6.9;2.43;;;8.5;91.2;;;;;;;;;
2021/04/24 00:15:12;;;;;;;6.9;2.43;;;8.5;91.2;;;;;;;;;
2021/04/24 00:15:12;;;;;;;6.9;2.43;;;8.5;91.2;;;;;;;;;
2021/04/24 00:15:27;;;;;;;5.4;2.73;;;8.5;91.2;;;;;;;;;
2021/04/24 00:15:43;;;;;;;5.4;2.73;;;8.5;91.2;;;;;;;;;
2021/04/24 00:15:53;;;;;;;5.4;2.73;;;8.5;91.2;;;;;;;;;
2021/04/24 00:16:02;;;;;;;5.4;2.73;;;8.5;91.2;;;;;;;;;
2021/04/24 00:16:08;;;;;;;5.4;2.73;;;8.5;91.2;;;;;;;;;
2021/04/24 00:16:14;;;;;;;5.4;2.73;;;8.5;91.2;;;;;;;;;
2021/04/24 00:16:29;;;;;;;5.63;2.53;;;8.4;91.2;;;;;;;;;
2021/04/24 00:16:39;;;;;;;5.63;2.53;;;8.4;91.2;;;;;;;;;
2021/04/24 00:16:55;;;;;;;5.63;2.53;;;8.4;91.2;;;;;;;;;
2021/04/24 00:17:01;;;;;;;5.63;2.53;;;8.4;91.2;;;;;;;;;
2021/04/24 00:17:05;;;;;;;5.63;2.53;;;8.4;91.2;;;;;;;;;
2021/04/24 00:17:15;;;;;;;5.63;2.53;;;8.4;91.2;;;;;;;;;
2021/04/24 00:17:25;;;;;;;3.23;2;;;8.4;91.3;;;;;;;;;
2021/04/24 00:17:41;;;;;;;3.23;2;;;8.4;91.3;;;;;;;;;
2021/04/24 00:17:56;;;;;;;3.23;2;;;8.4;91.3;;;;;;;;;
2021/04/24 00:18:02;;;;;;;3.23;2;;;8.4;91.3;;;;;;;;;
2021/04/24 00:18:06;;;;;;;3.23;2;;;8.4;91.3;;;;;;;;;
2021/04/24 00:18:16;;;;;;;3.23;2;;;8.4;91.3;;;;;;;;;
2021/04/24 00:18:27;;;;;;;2.97;2.17;;;8.4;91.1;;;;;;;;;
2021/04/24 00:18:42;;;;;;;2.97;2.17;;;8.4;91.1;;;;;;;;;
2021/04/24 00:18:52;;;;;;;2.97;2.17;;;8.4;91.1;;;;;;;;;
2021/04/24 00:19:02;;;;;;;2.97;2.17;;;8.4;91.1;;;;;;;;;
2021/04/24 00:19:08;;;;;;;2.97;2.17;;;8.4;91.1;;;;;;;;;
2021/04/24 00:19:13;;;;;;;2.97;2.17;;;8.4;91.1;;;;;;;;;
2021/04/24 00:19:28;;;;;;;5.4;1.93;;;8.3;91;;;;;;;;;
2021/04/24 00:19:38;;;;;;;5.4;1.93;;;8.3;91;;;;;;;;;
2021/04/24 00:19:54;;;;;;;5.4;1.93;;;8.3;91;;;;;;;;;
2021/04/24 00:20:01;;;;;;;5.4;1.93;;;8.3;91;;;;;;;;;
2021/04/24 00:20:09;;;;;;;5.4;1.93;;;8.3;91;;;;;;;;;
2021/04/24 00:20:14;;;;;;;5.4;1.93;;;8.3;91;;;;;;;;;
2021/04/24 00:20:30;;;;;;;4.97;2.4;;;8.1;91.4;;;;;;;;;
2021/04/24 00:20:40;;;;;;;4.97;2.4;;;8.1;91.4;;;;;;;;;
2021/04/24 00:20:55;;;;;;;4.97;2.4;;;8.1;91.4;;;;;;;;;
2021/04/24 00:21:02;;;;;;;4.97;2.4;;;8.1;91.4;;;;;;;;;
2021/04/24 00:21:05;;;;;;;4.97;2.4;;;8.1;91.4;;;;;;;;;
2021/04/24 00:21:16;;;;;;;4.97;2.4;;;8.1;91.4;;;;;;;;;
2021/04/24 00:21:26;;;;;;;5.7;2.5;;;8.1;91.5;;;;;;;;;
2021/04/24 00:21:41;;;;;;;5.7;2.5;;;8.1;91.5;;;;;;;;;
2021/04/24 00:21:51;;;;;;;5.7;2.5;;;8.1;91.5;;;;;;;;;
2021/04/24 00:22:01;;;;;;;5.7;2.5;;;8.1;91.5;;;;;;;;;
2021/04/24 00:22:07;;;;;;;5.7;2.5;;;8.1;91.5;;;;;;;;;
2021/04/24 00:22:17;;;;;;;5.7;2.5;;;8.1;91.5;;;;;;;;;
2021/04/24 00:22:27;;;;;;;5.63;2.1;;;8.1;91.4;;;;;;;;;
2021/04/24 00:22:43;;;;;;;5.63;2.1;;;8.1;91.4;;;;;;;;;
2021/04/24 00:22:53;;;;;;;5.63;2.1;;;8.1;91.4;;;;;;;;;
2021/04/24 00:23:02;;;;;;;5.63;2.1;;;8.1;91.4;;;;;;;;;
2021/04/24 00:23:08;;;;;;;5.63;2.1;;;8.1;91.4;;;;;;;;;
2021/04/24 00:23:13;;;;;;;5.63;2.1;;;8.1;91.4;;;;;;;;;
2021/04/24 00:23:29;;;;;;;5.8;2.1;;;8.1;91.5;;;;;;;;;
2021/04/24 00:23:39;;;;;;;5.8;2.1;;;8.1;91.5;;;;;;;;;
2021/04/24 00:23:55;;;;;;;5.8;2.1;;;8.1;91.5;;;;;;;;;
2021/04/24 00:24:02;;;;;;;5.8;2.1;;;8.1;91.5;;;;;;;;;
2021/04/24 00:24:05;;;;;;;5.8;2.1;;;8.1;91.5;;;;;;;;;
2021/04/24 00:24:15;;;;;;;5.8;2.1;;;8.1;91.5;;;;;;;;;
2021/04/24 00:24:30;;;;;;;5.5;2;;;8.1;91.3;;;;;;;;;
2021/04/24 00:24:40;;;;;;;5.5;2;;;8.1;91.3;;;;;;;;;
2021/04/24 00:24:56;;;;;;;5.5;2;;;8.1;91.3;;;;;;;;;
2021/04/24 00:25:02;;;;;;;5.5;2;;;8.1;91.3;;;;;;;;;
2021/04/24 00:25:07;;;;;;;5.5;2;;;8.1;91.3;;;;;;;;;
2021/04/24 00:25:16;;;;;;;5.5;2;;;8.1;91.3;;;;;;;;;
2021/04/24 00:25:27;;;;;;;5.7;2;;;8.1;91.6;;;;;;;;;
2021/04/24 00:25:43;;;;;;;5.7;2;;;8.1;91.6;;;;;;;;;
2021/04/24 00:25:52;;;;;;;5.7;2;;;8.1;91.6;;;;;;;;;
2021/04/24 00:26:02;;;;;;;5.7;2;;;8.1;91.6;;;;;;;;;
2021/04/24 00:26:07;;;;;;;5.7;2;;;8.1;91.6;;;;;;;;;
2021/04/24 00:26:18;;;;;;;5.7;2;;;8.1;91.6;;;;;;;;;
2021/04/24 00:26:28;;;;;;;3.3;2.2;;;8.1;91.5;;;;;;;;;
2021/04/24 00:26:43;;;;;;;3.3;2.2;;;8.1;91.5;;;;;;;;;
2021/04/24 00:26:54;;;;;;;3.3;2.2;;;8.1;91.5;;;;;;;;;
2021/04/24 00:27:01;;;;;;;3.3;2.2;;;8.1;91.5;;;;;;;;;
2021/04/24 00:27:09;;;;;;;3.3;2.2;;;8.1;91.5;;;;;;;;;
2021/04/24 00:27:14;;;;;;;3.3;2.2;;;8.1;91.5;;;;;;;;;
2021/04/24 00:27:29;;;;;;;4.67;2.33;;;8.1;91.4;;;;;;;;;
2021/04/24 00:27:40;;;;;;;4.67;2.33;;;8.1;91.4;;;;;;;;;
2021/04/24 00:27:55;;;;;;;4.67;2.33;;;8.1;91.4;;;;;;;;;
2021/04/24 00:28:02;;;;;;;4.67;2.33;;;8.1;91.4;;;;;;;;;
2021/04/24 00:28:08;;;;;;;4.67;2.33;;;8.1;91.4;;;;;;;;;
2021/04/24 00:28:15;;;;;;;4.67;2.33;;;8.1;91.4;;;;;;;;;
2021/04/24 00:28:31;;;;;;;4.47;1.83;;;8.1;91.2;;;;;;;;;
2021/04/24 00:28:41;;;;;;;4.47;1.83;;;8.1;91.2;;;;;;;;;
2021/04/24 00:28:57;;;;;;;4.47;1.83;;;8.1;91.2;;;;;;;;;
2021/04/24 00:29:02;;;;;;;4.47;1.83;;;8.1;91.2;;;;;;;;;
2021/04/24 00:29:07;;;;;;;4.47;1.83;;;8.1;91.2;;;;;;;;;
2021/04/24 00:29:12;;;;;;;4.47;1.83;;;8.1;91.2;;;;;;;;;
2021/04/24 00:29:27;;;;;;;5;2.37;;;8.1;91.2;;;;;;;;;
2021/04/24 00:29:43;;;;;;;5;2.37;;;8.1;91.2;;;;;;;;;
2021/04/24 00:29:53;;;;;;;5;2.37;;;8.1;91.2;;;;;;;;;
2021/04/24 00:30:02;;;;;;;5;2.37;;;8.1;91.2;;;;;;;;;
2021/04/24 00:30:08;;;;;;;5;2.37;;;8.1;91.2;;;;;;;;;
2021/04/24 00:30:13;;;;;;;5;2.37;;;8.1;91.2;;;;;;;;;
2021/04/24 00:30:29;;;;;;;3.83;2.47;;;8.1;91.2;;;;;;;;;
2021/04/24 00:30:46;;;;;;;3.83;2.47;;;8.1;91.2;;;;;;;;;
2021/04/24 00:30:54;;;;;;;3.83;2.47;;;8.1;91.2;;;;;;;;;
2021/04/24 00:31:02;;;;;;;3.83;2.47;;;8.1;91.2;;;;;;;;;
2021/04/24 00:31:10;;;;;;;3.83;2.47;;;8.1;91.2;;;;;;;;;
2021/04/24 00:31:15;;;;;;;3.83;2.47;;;8.1;91.2;;;;;;;;;
2021/04/24 00:31:25;;;;;;;6.07;2.2;;;8.1;91.1;;;;;;;;;
2021/04/24 00:31:40;;;;;;;6.07;2.2;;;8.1;91.1;;;;;;;;;
2021/04/24 00:31:56;;;;;;;6.07;2.2;;;8.1;91.1;;;;;;;;;
2021/04/24 00:32:01;;;;;;;6.07;2.2;;;8.1;91.1;;;;;;;;;
2021/04/24 00:32:06;;;;;;;6.07;2.2;;;8.1;91.1;;;;;;;;;
2021/04/24 00:32:16;;;;;;;6.07;2.2;;;8.1;91.1;;;;;;;;;
2021/04/24 00:32:26;;;;;;;5.63;2.6;;;8.1;91.1;;;;;;;;;
2021/04/24 00:32:42;;;;;;;5.63;2.6;;;8.1;91.1;;;;;;;;;
2021/04/24 00:32:57;;;;;;;5.63;2.6;;;8.1;91.1;;;;;;;;;
2021/04/24 00:33:02;;;;;;;5.63;2.6;;;8.1;91.1;;;;;;;;;
2021/04/24 00:33:07;;;;;;;5.63;2.6;;;8.1;91.1;;;;;;;;;
2021/04/24 00:33:12;;;;;;;5.63;2.6;;;8.1;91.1;;;;;;;;;
2021/04/24 00:33:28;;;;;;;3.6;2.03;;;8;91.2;;;;;;;;;
2021/04/24 00:33:38;;;;;;;3.6;2.03;;;8;91.2;;;;;;;;;
2021/04/24 00:33:53;;;;;;;3.6;2.03;;;8;91.2;;;;;;;;;
2021/04/24 00:34:03;;;;;;;3.6;2.03;;;8;91.2;;;;;;;;;
2021/04/24 00:34:09;;;;;;;3.6;2.03;;;8;91.2;;;;;;;;;
2021/04/24 00:34:14;;;;;;;3.6;2.03;;;8;91.2;;;;;;;;;
2021/04/24 00:34:29;;;;;;;7.1;2.5;;;7.9;91.2;;;;;;;;;
2021/04/24 00:34:39;;;;;;;7.1;2.5;;;7.9;91.2;;;;;;;;;
2021/04/24 00:34:55;;;;;;;7.1;2.5;;;7.9;91.2;;;;;;;;;
2021/04/24 00:35:02;;;;;;;7.1;2.5;;;7.9;91.2;;;;;;;;;
2021/04/24 00:35:10;;;;;;;7.1;2.5;;;7.9;91.2;;;;;;;;;
2021/04/24 00:35:16;;;;;;;7.1;2.5;;;7.9;91.2;;;;;;;;;
2021/04/24 00:35:26;;;;;;;6.9;1.97;;;7.9;91.4;;;;;;;;;
2021/04/24 00:35:41;;;;;;;6.9;1.97;;;7.9;91.4;;;;;;;;;
2021/04/24 00:35:51;;;;;;;6.9;1.97;;;7.9;91.4;;;;;;;;;
2021/04/24 00:36:02;;;;;;;6.9;1.97;;;7.9;91.4;;;;;;;;;
2021/04/24 00:36:07;;;;;;;6.9;1.97;;;7.9;91.4;;;;;;;;;
2021/04/24 00:36:17;;;;;;;6.9;1.97;;;7.9;91.4;;;;;;;;;
2021/04/24 00:36:27;;;;;;;6;1.9;;;7.8;91.3;;;;;;;;;
2021/04/24 00:36:42;;;;;;;6;1.9;;;7.8;91.3;;;;;;;;;
2021/04/24 00:36:53;;;;;;;6;1.9;;;7.8;91.3;;;;;;;;;
2021/04/24 00:37:02;;;;;;;6;1.9;;;7.8;91.3;;;;;;;;;
2021/04/24 00:37:09;;;;;;;6;1.9;;;7.8;91.3;;;;;;;;;
2021/04/24 00:37:13;;;;;;;6;1.9;;;7.8;91.3;;;;;;;;;
2021/04/24 00:37:28;;;;;;;5.4;2.17;;;7.9;91.2;;;;;;;;;
2021/04/24 00:37:39;;;;;;;5.4;2.17;;;7.9;91.2;;;;;;;;;
2021/04/24 00:37:54;;;;;;;5.4;2.17;;;7.9;91.2;;;;;;;;;
2021/04/24 00:38:02;;;;;;;5.4;2.17;;;7.9;91.2;;;;;;;;;
2021/04/24 00:38:04;;;;;;;5.4;2.17;;;7.9;91.2;;;;;;;;;
2021/04/24 00:38:15;;;;;;;5.4;2.17;;;7.9;91.2;;;;;;;;;
2021/04/24 00:38:30;;;;;;;8.97;2.1;;;7.8;91.1;;;;;;;;;
2021/04/24 00:38:41;;;;;;;8.97;2.1;;;7.8;91.1;;;;;;;;;
2021/04/24 00:38:55;;;;;;;8.97;2.1;;;7.8;91.1;;;;;;;;;
2021/04/24 00:39:01;;;;;;;8.97;2.1;;;7.8;91.1;;;;;;;;;
2021/04/24 00:39:06;;;;;;;8.97;2.1;;;7.8;91.1;;;;;;;;;
2021/04/24 00:39:16;;;;;;;8.97;2.1;;;7.8;91.1;;;;;;;;;
2021/04/24 00:39:26;;;;;;;4.4;1.97;;;7.8;91.3;;;;;;;;;
2021/04/24 00:39:42;;;;;;;4.4;1.97;;;7.8;91.3;;;;;;;;;
2021/04/24 00:39:52;;;;;;;4.4;1.97;;;7.8;91.3;;;;;;;;;
2021/04/24 00:40:02;;;;;;;4.4;1.97;;;7.8;91.3;;;;;;;;;
2021/04/24 00:40:07;;;;;;;4.4;1.97;;;7.8;91.3;;;;;;;;;
2021/04/24 00:40:12;;;;;;;4.4;1.97;;;7.8;91.3;;;;;;;;;
2021/04/24 00:40:28;;;;;;;4.97;2.23;;;7.8;91.4;;;;;;;;;
2021/04/24 00:40:43;;;;;;;4.97;2.23;;;7.8;91.4;;;;;;;;;
2021/04/24 00:40:53;;;;;;;4.97;2.23;;;7.8;91.4;;;;;;;;;
2021/04/24 00:41:02;;;;;;;4.97;2.23;;;7.8;91.4;;;;;;;;;
2021/04/24 00:41:09;;;;;;;4.97;2.23;;;7.8;91.4;;;;;;;;;
2021/04/24 00:41:14;;;;;;;4.97;2.23;;;7.8;91.4;;;;;;;;;
2021/04/24 00:41:29;;;;;;;3;1.8;;;7.9;91.2;;;;;;;;;
2021/04/24 00:41:39;;;;;;;3;1.8;;;7.9;91.2;;;;;;;;;
2021/04/24 00:41:55;;;;;;;3;1.8;;;7.9;91.2;;;;;;;;;
2021/04/24 00:42:01;;;;;;;3;1.8;;;7.9;91.2;;;;;;;;;
2021/04/24 00:42:05;;;;;;;3;1.8;;;7.9;91.2;;;;;;;;;
2021/04/24 00:42:15;;;;;;;3;1.8;;;7.9;91.2;;;;;;;;;
2021/04/24 00:42:25;;;;;;;6.53;1.9;;;7.9;91;;;;;;;;;
2021/04/24 00:42:41;;;;;;;6.53;1.9;;;7.9;91;;;;;;;;;
2021/04/24 00:42:56;;;;;;;6.53;1.9;;;7.9;91;;;;;;;;;
2021/04/24 00:43:02;;;;;;;6.53;1.9;;;7.9;91;;;;;;;;;
2021/04/24 00:43:06;;;;;;;6.53;1.9;;;7.9;91;;;;;;;;;
2021/04/24 00:43:17;;;;;;;6.53;1.9;;;7.9;91;;;;;;;;;
2021/04/24 00:43:27;;;;;;;3.2;1.8;;;7.9;91;;;;;;;;;
2021/04/24 00:43:42;;;;;;;3.2;1.8;;;7.9;91;;;;;;;;;
2021/04/24 00:43:52;;;;;;;3.2;1.8;;;7.9;91;;;;;;;;;
2021/04/24 00:44:01;;;;;;;3.2;1.8;;;7.9;91;;;;;;;;;
2021/04/24 00:44:08;;;;;;;3.2;1.8;;;7.9;91;;;;;;;;;
2021/04/24 00:44:13;;;;;;;3.2;1.8;;;7.9;91;;;;;;;;;
2021/04/24 00:44:28;;;;;;;4.43;2.13;;;7.9;91;;;;;;;;;
2021/04/24 00:44:39;;;;;;;4.43;2.13;;;7.9;91;;;;;;;;;
2021/04/24 00:44:54;;;;;;;4.43;2.13;;;7.9;91;;;;;;;;;
2021/04/24 00:45:02;;;;;;;4.43;2.13;;;7.9;91;;;;;;;;;
2021/04/24 00:45:09;;;;;;;4.43;2.13;;;7.9;91;;;;;;;;;
2021/04/24 00:45:14;;;;;;;4.43;2.13;;;7.9;91;;;;;;;;;
2021/04/24 00:45:30;;;;;;;4;1.7;;;7.9;90.7;;;;;;;;;
2021/04/24 00:45:40;;;;;;;4;1.7;;;7.9;90.7;;;;;;;;;
2021/04/24 00:45:55;;;;;;;4;1.7;;;7.9;90.7;;;;;;;;;
2021/04/24 00:46:02;;;;;;;4;1.7;;;7.9;90.7;;;;;;;;;
2021/04/24 00:46:06;;;;;;;4;1.7;;;7.9;90.7;;;;;;;;;
2021/04/24 00:46:17;;;;;;;4;1.7;;;7.9;90.7;;;;;;;;;
2021/04/24 00:46:26;;;;;;;2.57;1.8;;;7.9;90.8;;;;;;;;;
2021/04/24 00:46:41;;;;;;;2.57;1.8;;;7.9;90.8;;;;;;;;;
2021/04/24 00:46:57;;;;;;;2.57;1.8;;;7.9;90.8;;;;;;;;;
2021/04/24 00:47:02;;;;;;;2.57;1.8;;;7.9;90.8;;;;;;;;;
2021/04/24 00:47:07;;;;;;;2.57;1.8;;;7.9;90.8;;;;;;;;;
2021/04/24 00:47:17;;;;;;;2.57;1.8;;;7.9;90.8;;;;;;;;;
2021/04/24 00:47:28;;;;;;;3.17;1.67;;;7.8;90.8;;;;;;;;;
2021/04/24 00:47:43;;;;;;;3.17;1.67;;;7.8;90.8;;;;;;;;;
2021/04/24 00:47:53;;;;;;;3.17;1.67;;;7.8;90.8;;;;;;;;;
2021/04/24 00:48:02;;;;;;;3.17;1.67;;;7.8;90.8;;;;;;;;;
2021/04/24 00:48:08;;;;;;;3.17;1.67;;;7.8;90.8;;;;;;;;;
2021/04/24 00:48:24;;;;;;;3.17;1.67;;;7.8;90.8;;;;;;;;;
2021/04/24 00:48:29;;;;;;;3.67;1.6;;;7.8;90.8;;;;;;;;;
2021/04/24 00:48:39;;;;;;;3.67;1.6;;;7.8;90.8;;;;;;;;;
2021/04/24 00:48:55;;;;;;;3.67;1.6;;;7.8;90.8;;;;;;;;;
2021/04/24 00:49:01;;;;;;;3.67;1.6;;;7.8;90.8;;;;;;;;;
2021/04/24 00:49:10;;;;;;;3.67;1.6;;;7.8;90.8;;;;;;;;;
2021/04/24 00:49:15;;;;;;;3.67;1.6;;;7.8;90.8;;;;;;;;;
2021/04/24 00:49:31;;;;;;;5.07;2.23;;;7.7;90.8;;;;;;;;;
2021/04/24 00:49:41;;;;;;;5.07;2.23;;;7.7;90.8;;;;;;;;;
2021/04/24 00:49:56;;;;;;;5.07;2.23;;;7.7;90.8;;;;;;;;;
2021/04/24 00:50:02;;;;;;;5.07;2.23;;;7.7;90.8;;;;;;;;;
2021/04/24 00:50:06;;;;;;;5.07;2.23;;;7.7;90.8;;;;;;;;;
2021/04/24 00:50:16;;;;;;;5.07;2.23;;;7.7;90.8;;;;;;;;;
2021/04/24 00:50:37;;;;;;;3.03;1.63;;;7.7;91.2;;;;;;;;;
2021/04/24 00:50:42;;;;;;;3.03;1.63;;;7.7;91.2;;;;;;;;;
2021/04/24 00:50:52;;;;;;;3.03;1.63;;;7.7;91.2;;;;;;;;;
2021/04/24 00:51:02;;;;;;;3.03;1.63;;;7.7;91.2;;;;;;;;;
2021/04/24 00:51:08;;;;;;;3.03;1.63;;;7.7;91.2;;;;;;;;;
2021/04/24 00:51:13;;;;;;;3.03;1.63;;;7.7;91.2;;;;;;;;;
2021/04/24 00:51:28;;;;;;;3.5;1.83;;;7.8;90.8;;;;;;;;;
2021/04/24 00:51:43;;;;;;;3.5;1.83;;;7.8;90.8;;;;;;;;;
2021/04/24 00:51:54;;;;;;;3.5;1.83;;;7.8;90.8;;;;;;;;;
2021/04/24 00:52:02;;;;;;;3.5;1.83;;;7.8;90.8;;;;;;;;;
2021/04/24 00:52:09;;;;;;;3.5;1.83;;;7.8;90.8;;;;;;;;;
2021/04/24 00:52:14;;;;;;;3.5;1.83;;;7.8;90.8;;;;;;;;;
2021/04/24 00:52:30;;;;;;;4.17;1.9;;;7.8;91;;;;;;;;;
2021/04/24 00:52:50;;;;;;;4.17;1.9;;;7.8;91;;;;;;;;;
2021/04/24 00:52:55;;;;;;;4.17;1.9;;;7.8;91;;;;;;;;;
2021/04/24 00:53:02;;;;;;;4.17;1.9;;;7.8;91;;;;;;;;;
2021/04/24 00:53:05;;;;;;;4.17;1.9;;;7.8;91;;;;;;;;;
2021/04/24 00:53:16;;;;;;;4.17;1.9;;;7.8;91;;;;;;;;;
2021/04/24 00:53:26;;;;;;;4.17;1.9;;;7.8;91;;;;;;;;;
2021/04/24 00:53:41;;;;;;;4.33;2;;;7.8;90.7;;;;;;;;;
2021/04/24 00:53:57;;;;;;;4.33;2;;;7.8;90.7;;;;;;;;;
2021/04/24 00:54:01;;;;;;;4.33;2;;;7.8;90.7;;;;;;;;;
2021/04/24 00:54:07;;;;;;;4.33;2;;;7.8;90.7;;;;;;;;;
2021/04/24 00:54:12;;;;;;;4.33;2;;;7.8;90.7;;;;;;;;;
2021/04/24 00:54:27;;;;;;;4.33;2;;;7.8;90.7;;;;;;;;;
2021/04/24 00:54:43;;;;;;;4.1;1.73;;;7.8;90.6;;;;;;;;;
2021/04/24 00:55:02;;;;;;;4.1;1.73;;;7.8;90.6;;;;;;;;;
2021/04/24 00:55:03;;;;;;;4.1;1.73;;;7.8;90.6;;;;;;;;;
2021/04/24 00:55:08;;;;;;;4.1;1.73;;;7.8;90.6;;;;;;;;;
2021/04/24 00:55:13;;;;;;;4.1;1.73;;;7.8;90.6;;;;;;;;;
2021/04/24 00:55:29;;;;;;;4.2;1.8;;;7.8;90.5;;;;;;;;;
2021/04/24 00:55:39;;;;;;;4.2;1.8;;;7.8;90.5;;;;;;;;;
2021/04/24 00:55:54;;;;;;;4.2;1.8;;;7.8;90.5;;;;;;;;;
2021/04/24 00:56:02;;;;;;;4.2;1.8;;;7.8;90.5;;;;;;;;;
2021/04/24 00:56:10;;;;;;;4.2;1.8;;;7.8;90.5;;;;;;;;;
2021/04/24 00:56:15;;;;;;;4.2;1.8;;;7.8;90.5;;;;;;;;;
2021/04/24 00:56:25;;;;;;;4.2;1.8;;;7.8;90.5;;;;;;;;;
2021/04/24 00:56:40;;;;;;;5.97;1.8;;;7.8;90.6;;;;;;;;;
2021/04/24 00:56:56;;;;;;;5.97;1.8;;;7.8;90.6;;;;;;;;;
2021/04/24 00:57:02;;;;;;;5.97;1.8;;;7.8;90.6;;;;;;;;;
2021/04/24 00:57:16;;;;;;;5.97;1.8;;;7.8;90.6;;;;;;;;;
2021/04/24 00:57:16;;;;;;;5.97;1.8;;;7.8;90.6;;;;;;;;;
2021/04/24 00:57:27;;;;;;;5.97;1.8;;;7.8;90.6;;;;;;;;;
2021/04/24 00:57:42;;;;;;;6.03;1.7;;;7.7;91;;;;;;;;;
2021/04/24 00:57:52;;;;;;;6.03;1.7;;;7.7;91;;;;;;;;;
2021/04/24 00:58:02;;;;;;;6.03;1.7;;;7.7;91;;;;;;;;;
2021/04/24 00:58:08;;;;;;;6.03;1.7;;;7.7;91;;;;;;;;;
2021/04/24 00:58:18;;;;;;;6.03;1.7;;;7.7;91;;;;;;;;;
2021/04/24 00:58:28;;;;;;;6.03;1.7;;;7.7;91;;;;;;;;;
2021/04/24 00:58:38;;;;;;;5.37;1.9;;;7.7;90.5;;;;;;;;;
2021/04/24 00:58:54;;;;;;;5.37;1.9;;;7.7;90.5;;;;;;;;;
2021/04/24 00:59:02;;;;;;;5.37;1.9;;;7.7;90.5;;;;;;;;;
2021/04/24 00:59:09;;;;;;;5.37;1.9;;;7.7;90.5;;;;;;;;;
2021/04/24 00:59:14;;;;;;;5.37;1.9;;;7.7;90.5;;;;;;;;;
2021/04/24 00:59:29;;;;;;;3.43;2;;;7.7;90.5;;;;;;;;;
2021/04/24 00:59:40;;;;;;;3.43;2;;;7.7;90.5;;;;;;;;;
2021/04/24 00:59:55;;;;;;;3.43;2;;;7.7;90.5;;;;;;;;;
2021/04/24 01:00:02;;;;;;;3.43;2;;;7.7;90.5;;;;;;;;;
2021/04/24 01:00:05;;;;;;;3.43;2;;;7.7;90.5;;;;;;;;;
2021/04/24 01:00:16;;;;;;;3.43;2;;;7.7;90.5;;;;;;;;;
2021/04/24 01:00:31;;;;;;;2.6;1.7;;;7.7;90.5;;;;;;;;;
2021/04/24 01:00:41;;;;;;;2.6;1.7;;;7.7;90.5;;;;;;;;;
2021/04/24 01:00:51;;;;;;;2.6;1.7;;;7.7;90.5;;;;;;;;;
2021/04/24 01:01:02;;;;;;;2.6;1.7;;;7.7;90.5;;;;;;;;;
2021/04/24 01:01:07;;;;;;;2.6;1.7;;;7.7;90.5;;;;;;;;;
2021/04/24 01:01:12;;;;;;;2.6;1.7;;;7.7;90.5;;;;;;;;;
2021/04/24 01:01:27;;;;;;;2.6;1.7;;;7.7;90.5;;;;;;;;;
2021/04/24 01:01:43;;;;;;;5.37;1.47;;;7.7;90.5;;;;;;;;;
2021/04/24 01:01:53;;;;;;;5.37;1.47;;;7.7;90.5;;;;;;;;;
2021/04/24 01:02:02;;;;;;;5.37;1.47;;;7.7;90.5;;;;;;;;;
2021/04/24 01:02:08;;;;;;;5.37;1.47;;;7.7;90.5;;;;;;;;;
2021/04/24 01:02:19;;;;;;;5.37;1.47;;;7.7;90.5;;;;;;;;;
2021/04/24 01:02:29;;;;;;;5.37;1.47;;;7.7;90.5;;;;;;;;;
2021/04/24 01:02:44;;;;;;;3.53;1.53;;;7.6;90.5;;;;;;;;;
2021/04/24 01:02:54;;;;;;;3.53;1.53;;;7.6;90.5;;;;;;;;;
2021/04/24 01:03:02;;;;;;;3.53;1.53;;;7.6;90.5;;;;;;;;;
2021/04/24 01:03:05;;;;;;;3.53;1.53;;;7.6;90.5;;;;;;;;;
2021/04/24 01:03:15;;;;;;;3.53;1.53;;;7.6;90.5;;;;;;;;;
2021/04/24 01:03:25;;;;;;;3.53;1.53;;;7.6;90.5;;;;;;;;;
2021/04/24 01:03:40;;;;;;;3.43;1.7;;;7.5;90.8;;;;;;;;;
2021/04/24 01:03:56;;;;;;;3.43;1.7;;;7.5;90.8;;;;;;;;;
2021/04/24 01:04:01;;;;;;;3.43;1.7;;;7.5;90.8;;;;;;;;;
2021/04/24 01:04:06;;;;;;;3.43;1.7;;;7.5;90.8;;;;;;;;;
2021/04/24 01:04:16;;;;;;;3.43;1.7;;;7.5;90.8;;;;;;;;;
2021/04/24 01:04:31;;;;;;;1.97;1.63;;;7.5;90.8;;;;;;;;;
2021/04/24 01:04:42;;;;;;;1.97;1.63;;;7.5;90.8;;;;;;;;;
2021/04/24 01:04:57;;;;;;;1.97;1.63;;;7.5;90.8;;;;;;;;;
2021/04/24 01:05:02;;;;;;;1.97;1.63;;;7.5;90.8;;;;;;;;;
2021/04/24 01:05:07;;;;;;;1.97;1.63;;;7.5;90.8;;;;;;;;;
2021/04/24 01:05:12;;;;;;;1.97;1.63;;;7.5;90.8;;;;;;;;;
2021/04/24 01:05:28;;;;;;;1.97;1.63;;;7.5;90.8;;;;;;;;;
2021/04/24 01:05:38;;;;;;;2.97;1.5;;;7.5;91;;;;;;;;;
2021/04/24 01:05:53;;;;;;;2.97;1.5;;;7.5;91;;;;;;;;;
2021/04/24 01:06:02;;;;;;;2.97;1.5;;;7.5;91;;;;;;;;;
2021/04/24 01:06:09;;;;;;;2.97;1.5;;;7.5;91;;;;;;;;;
2021/04/24 01:06:14;;;;;;;2.97;1.5;;;7.5;91;;;;;;;;;
2021/04/24 01:06:29;;;;;;;2.97;1.5;;;7.5;91;;;;;;;;;
2021/04/24 01:06:45;;;;;;;3.83;2;;;7.4;91.2;;;;;;;;;
2021/04/24 01:06:55;;;;;;;3.83;2;;;7.4;91.2;;;;;;;;;
2021/04/24 01:07:02;;;;;;;3.83;2;;;7.4;91.2;;;;;;;;;
2021/04/24 01:07:10;;;;;;;3.83;2;;;7.4;91.2;;;;;;;;;
2021/04/24 01:07:15;;;;;;;3.83;2;;;7.4;91.2;;;;;;;;;
2021/04/24 01:07:26;;;;;;;3.83;2;;;7.4;91.2;;;;;;;;;
2021/04/24 01:07:41;;;;;;;4.37;2;;;7.5;91.1;;;;;;;;;
2021/04/24 01:07:51;;;;;;;4.37;2;;;7.5;91.1;;;;;;;;;
2021/04/24 01:08:02;;;;;;;4.37;2;;;7.5;91.1;;;;;;;;;
2021/04/24 01:08:08;;;;;;;4.37;2;;;7.5;91.1;;;;;;;;;
2021/04/24 01:08:17;;;;;;;4.37;2;;;7.5;91.1;;;;;;;;;
2021/04/24 01:08:27;;;;;;;4.37;2;;;7.5;91.1;;;;;;;;;
2021/04/24 01:08:42;;;;;;;4.57;1.73;;;7.5;90.9;;;;;;;;;
2021/04/24 01:08:58;;;;;;;4.57;1.73;;;7.5;90.9;;;;;;;;;
2021/04/24 01:09:01;;;;;;;4.57;1.73;;;7.5;90.9;;;;;;;;;
2021/04/24 01:09:08;;;;;;;4.57;1.73;;;7.5;90.9;;;;;;;;;
2021/04/24 01:09:13;;;;;;;4.57;1.73;;;7.5;90.9;;;;;;;;;
2021/04/24 01:09:28;;;;;;;4.57;1.73;;;7.5;90.9;;;;;;;;;
2021/04/24 01:09:40;;;;;;;2.37;1.97;;;7.5;90.8;;;;;;;;;
2021/04/24 01:09:54;;;;;;;2.37;1.97;;;7.5;90.8;;;;;;;;;
2021/04/24 01:10:02;;;;;;;2.37;1.97;;;7.5;90.8;;;;;;;;;
2021/04/24 01:10:04;;;;;;;2.37;1.97;;;7.5;90.8;;;;;;;;;
2021/04/24 01:10:15;;;;;;;2.37;1.97;;;7.5;90.8;;;;;;;;;
2021/04/24 01:10:30;;;;;;;2.37;1.97;;;7.5;90.8;;;;;;;;;
2021/04/24 01:10:40;;;;;;;4.87;1.6;;;7.6;90.9;;;;;;;;;
2021/04/24 01:10:55;;;;;;;4.87;1.6;;;7.6;90.9;;;;;;;;;
2021/04/24 01:11:02;;;;;;;4.87;1.6;;;7.6;90.9;;;;;;;;;
2021/04/24 01:11:11;;;;;;;4.87;1.6;;;7.6;90.9;;;;;;;;;
2021/04/24 01:11:16;;;;;;;4.87;1.6;;;7.6;90.9;;;;;;;;;
2021/04/24 01:11:26;;;;;;;4.87;1.6;;;7.6;90.9;;;;;;;;;
2021/04/24 01:11:42;;;;;;;2.77;2.07;;;7.5;91.1;;;;;;;;;
2021/04/24 01:11:52;;;;;;;2.77;2.07;;;7.5;91.1;;;;;;;;;
2021/04/24 01:12:02;;;;;;;2.77;2.07;;;7.5;91.1;;;;;;;;;
2021/04/24 01:12:07;;;;;;;2.77;2.07;;;7.5;91.1;;;;;;;;;
2021/04/24 01:12:17;;;;;;;2.77;2.07;;;7.5;91.1;;;;;;;;;
2021/04/24 01:12:28;;;;;;;2.77;2.07;;;7.5;91.1;;;;;;;;;
2021/04/24 01:12:43;;;;;;;2.67;1.3;;;7.6;90.8;;;;;;;;;
2021/04/24 01:12:53;;;;;;;2.67;1.3;;;7.6;90.8;;;;;;;;;
2021/04/24 01:13:02;;;;;;;2.67;1.3;;;7.6;90.8;;;;;;;;;
2021/04/24 01:13:09;;;;;;;2.67;1.3;;;7.6;90.8;;;;;;;;;
2021/04/24 01:13:14;;;;;;;2.67;1.3;;;7.6;90.8;;;;;;;;;
2021/04/24 01:13:29;;;;;;;2.67;1.3;;;7.6;90.8;;;;;;;;;
2021/04/24 01:13:39;;;;;;;3.27;1.83;;;7.6;90.8;;;;;;;;;
2021/04/24 01:13:55;;;;;;;3.27;1.83;;;7.6;90.8;;;;;;;;;
2021/04/24 01:14:02;;;;;;;3.27;1.83;;;7.6;90.8;;;;;;;;;
2021/04/24 01:14:05;;;;;;;3.27;1.83;;;7.6;90.8;;;;;;;;;
2021/04/24 01:14:15;;;;;;;3.27;1.83;;;7.6;90.8;;;;;;;;;
2021/04/24 01:14:31;;;;;;;3.27;1.83;;;7.6;90.8;;;;;;;;;
2021/04/24 01:14:41;;;;;;;6.13;1.7;;;7.6;90.8;;;;;;;;;
2021/04/24 01:14:56;;;;;;;6.13;1.7;;;7.6;90.8;;;;;;;;;
2021/04/24 01:15:02;;;;;;;6.13;1.7;;;7.6;90.8;;;;;;;;;
2021/04/24 01:15:06;;;;;;;6.13;1.7;;;7.6;90.8;;;;;;;;;
2021/04/24 01:15:17;;;;;;;6.13;1.7;;;7.6;90.8;;;;;;;;;
2021/04/24 01:15:27;;;;;;;6.13;1.7;;;7.6;90.8;;;;;;;;;
2021/04/24 01:15:42;;;;;;;4.03;1.6;;;7.6;90.7;;;;;;;;;
2021/04/24 01:15:52;;;;;;;4.03;1.6;;;7.6;90.7;;;;;;;;;
2021/04/24 01:16:01;;;;;;;4.03;1.6;;;7.6;90.7;;;;;;;;;
2021/04/24 01:16:08;;;;;;;4.03;1.6;;;7.6;90.7;;;;;;;;;
2021/04/24 01:16:13;;;;;;;4.03;1.6;;;7.6;90.7;;;;;;;;;
2021/04/24 01:16:28;;;;;;;4.03;1.6;;;7.6;90.7;;;;;;;;;
2021/04/24 01:16:44;;;;;;;3.7;1.47;;;7.6;90.8;;;;;;;;;
2021/04/24 01:16:54;;;;;;;3.7;1.47;;;7.6;90.8;;;;;;;;;
2021/04/24 01:17:02;;;;;;;3.7;1.47;;;7.6;90.8;;;;;;;;;
2021/04/24 01:17:09;;;;;;;3.7;1.47;;;7.6;90.8;;;;;;;;;
2021/04/24 01:17:14;;;;;;;3.7;1.47;;;7.6;90.8;;;;;;;;;
2021/04/24 01:17:30;;;;;;;3.7;1.47;;;7.6;90.8;;;;;;;;;
2021/04/24 01:17:40;;;;;;;3.23;1.7;;;7.6;90.8;;;;;;;;;
2021/04/24 01:17:55;;;;;;;3.23;1.7;;;7.6;90.8;;;;;;;;;